Time;durP1;ratioP1;P1;durP2;ratioP2;P2;SDS_P1;SDS_P2;PMS_P1;PMS_P2;Temp;Humidity;BMP_temperature;BMP_pressure;BME280_temperature;BME280_humidity;BME280_pressure;Samples;Min_cycle;Max_cycle;Signal;HPM_P1;HPM_P2
2023/08/21 00:01:09;;;;;;;6.57;2.90;;;17.10;99.90;;;;;;5034437;28;20047;-70
2023/08/21 00:03:34;;;;;;;3.85;2.10;;;17.20;99.90;;;;;;5052201;28;20123;-70
2023/08/21 00:06:00;;;;;;;4.90;2.30;;;17.30;99.90;;;;;;5052543;28;20072;-70
2023/08/21 00:08:26;;;;;;;4.88;2.03;;;17.40;99.90;;;;;;5034054;28;20037;-70
2023/08/21 00:10:51;;;;;;;6.28;2.17;;;17.10;99.90;;;;;;5018090;28;20029;-70
2023/08/21 00:13:17;;;;;;;4.55;1.90;;;17.00;99.90;;;;;;5034533;28;20051;-70
2023/08/21 00:15:42;;;;;;;6.18;2.38;;;17.10;99.90;;;;;;5034217;28;20134;-70
2023/08/21 00:18:08;;;;;;;5.75;1.98;;;17.10;99.90;;;;;;5017709;28;20045;-70
2023/08/21 00:20:33;;;;;;;4.18;2.00;;;17.00;99.90;;;;;;5052451;28;20041;-70
2023/08/21 00:22:59;;;;;;;3.80;2.20;;;17.10;99.90;;;;;;5052424;28;20052;-70
2023/08/21 00:25:25;;;;;;;5.13;2.00;;;17.20;99.90;;;;;;5052012;28;20033;-70
2023/08/21 00:27:50;;;;;;;5.13;2.25;;;16.90;99.90;;;;;;5058349;28;20041;-70
2023/08/21 00:30:16;;;;;;;6.25;2.60;;;16.80;99.90;;;;;;5058710;28;20071;-70
2023/08/21 00:32:41;;;;;;;3.28;1.60;;;16.80;99.90;;;;;;5058339;28;20052;-70
2023/08/21 00:35:07;;;;;;;3.25;1.65;;;17.10;99.90;;;;;;5058772;28;20467;-71
2023/08/21 00:37:33;;;;;;;3.97;1.80;;;17.00;99.90;;;;;;5058763;28;20047;-70
2023/08/21 00:39:59;;;;;;;3.65;1.48;;;16.70;99.90;;;;;;5058784;28;20037;-70
2023/08/21 00:42:24;;;;;;;3.42;1.88;;;16.90;99.90;;;;;;5058517;28;20401;-70
2023/08/21 00:44:50;;;;;;;3.20;1.95;;;16.60;99.90;;;;;;5058713;28;20408;-71
2023/08/21 00:47:15;;;;;;;4.55;2.20;;;16.80;99.90;;;;;;5058500;28;20465;-70
2023/08/21 00:49:42;;;;;;;4.75;1.90;;;16.60;99.90;;;;;;5058287;28;20033;-70
2023/08/21 00:52:12;;;;;;;5.40;1.98;;;16.60;99.90;;;;;;5058660;28;20037;-70
2023/08/21 00:54:37;;;;;;;3.92;1.85;;;16.70;99.90;;;;;;5058392;28;20072;-70
2023/08/21 00:57:04;;;;;;;3.22;1.58;;;16.60;99.90;;;;;;5058057;28;20068;-70
2023/08/21 00:59:30;;;;;;;4.82;1.80;;;16.70;99.90;;;;;;5058120;28;20035;-70
2023/08/21 01:01:56;;;;;;;5.13;2.13;;;16.70;99.90;;;;;;5058354;28;20116;-71
2023/08/21 01:04:21;;;;;;;9.63;2.78;;;16.70;99.90;;;;;;5059124;28;20029;-71
2023/08/21 01:06:49;;;;;;;4.72;2.20;;;16.50;99.90;;;;;;5060300;28;20523;-70
2023/08/21 01:09:21;;;;;;;4.43;2.08;;;16.50;99.90;;;;;;5058978;28;20066;-71
2023/08/21 01:12:00;;;;;;;4.70;1.83;;;16.80;99.90;;;;;;5058911;28;20076;-70
2023/08/21 01:14:31;;;;;;;3.47;1.77;;;16.50;99.90;;;;;;5058504;28;20041;-70
2023/08/21 01:17:00;;;;;;;2.55;1.40;;;16.70;99.90;;;;;;5040600;28;20041;-71
2023/08/21 01:19:38;;;;;;;3.95;1.65;;;16.40;99.90;;;;;;5058434;28;20493;-71
2023/08/21 01:22:04;;;;;;;4.25;1.75;;;16.50;99.90;;;;;;5024145;28;20037;-71
2023/08/21 01:24:29;;;;;;;3.10;1.25;;;16.40;99.90;;;;;;5039709;28;20408;-71
2023/08/21 01:26:55;;;;;;;1.42;1.10;;;16.60;99.90;;;;;;5040215;28;20048;-71
2023/08/21 01:29:21;;;;;;;1.88;1.05;;;16.30;99.90;;;;;;5058497;28;20129;-71
2023/08/21 01:32:01;;;;;;;2.97;1.30;;;16.40;99.90;;;;;;5040164;28;20171;-71
2023/08/21 01:34:28;;;;;;;5.13;1.55;;;16.50;99.90;;;;;;5058435;28;20045;-70
2023/08/21 01:36:54;;;;;;;3.45;1.70;;;16.30;99.90;;;;;;5058269;28;20103;-70
2023/08/21 01:39:20;;;;;;;4.53;1.85;;;16.40;99.90;;;;;;5036485;28;20029;-70
2023/08/21 01:41:46;;;;;;;3.63;1.33;;;16.30;99.90;;;;;;5054938;28;20374;-70
2023/08/21 01:44:11;;;;;;;2.22;1.52;;;16.00;99.90;;;;;;5037457;28;20065;-71
2023/08/21 01:46:37;;;;;;;4.82;1.50;;;16.30;99.90;;;;;;5054950;28;20087;-70
2023/08/21 01:49:02;;;;;;;2.08;1.15;;;16.10;99.90;;;;;;5054547;28;20043;-70
2023/08/21 01:51:28;;;;;;;6.05;2.42;;;16.00;99.90;;;;;;5036763;28;20045;-70
2023/08/21 01:53:53;;;;;;;1.80;1.00;;;16.10;99.90;;;;;;5054568;28;20075;-71
2023/08/21 01:56:19;;;;;;;1.88;0.80;;;16.10;99.90;;;;;;5054392;28;20051;-70
2023/08/21 01:58:44;;;;;;;3.70;2.38;;;16.20;99.90;;;;;;5054787;28;20127;-70
2023/08/21 02:01:10;;;;;;;1.88;1.00;;;15.80;99.90;;;;;;5036681;28;20077;-71
2023/08/21 02:03:35;;;;;;;3.58;1.00;;;15.70;99.90;;;;;;5037185;28;20037;-71
2023/08/21 02:06:01;;;;;;;3.15;1.05;;;15.70;99.90;;;;;;5020007;28;20093;-71
2023/08/21 02:08:32;;;;;;;1.15;0.60;;;16.00;99.90;;;;;;5054210;28;20404;-70
2023/08/21 02:10:57;;;;;;;1.60;0.80;;;15.70;99.90;;;;;;5054194;28;20523;-70
2023/08/21 02:13:23;;;;;;;1.27;0.47;;;15.80;99.90;;;;;;5036451;28;20041;-70
2023/08/21 02:15:48;;;;;;;1.45;0.50;;;15.90;99.90;;;;;;5054601;28;20037;-71
2023/08/21 02:18:14;;;;;;;0.60;0.40;;;15.90;99.90;;;;;;5054027;28;20059;-71
2023/08/21 02:20:40;;;;;;;0.63;0.63;;;15.80;99.90;;;;;;5054113;28;20115;-71
2023/08/21 02:23:06;;;;;;;1.13;0.60;;;15.70;99.90;;;;;;5036226;28;20119;-71
2023/08/21 02:25:32;;;;;;;2.58;1.02;;;15.70;99.90;;;;;;5053914;28;20044;-71
2023/08/21 02:27:58;;;;;;;2.67;1.17;;;15.60;99.90;;;;;;5053846;28;20041;-71
2023/08/21 02:30:25;;;;;;;3.95;1.20;;;15.60;99.90;;;;;;5054104;28;20041;-71
2023/08/21 02:32:54;;;;;;;2.15;1.13;;;15.50;99.90;;;;;;5053989;28;20463;-71
2023/08/21 02:35:23;;;;;;;1.73;1.45;;;15.40;99.90;;;;;;5053629;28;20044;-71
2023/08/21 02:37:48;;;;;;;1.85;1.40;;;15.60;99.90;;;;;;5053386;28;20041;-71
2023/08/21 02:40:14;;;;;;;2.17;1.30;;;15.40;99.90;;;;;;5053819;28;20091;-71
2023/08/21 02:42:39;;;;;;;2.38;1.33;;;15.40;99.90;;;;;;5053732;28;20037;-71
2023/08/21 02:45:09;;;;;;;1.90;1.50;;;15.30;99.90;;;;;;5053545;28;20076;-71
2023/08/21 02:47:38;;;;;;;2.17;1.88;;;15.40;99.90;;;;;;5035426;28;20047;-71
2023/08/21 02:50:05;;;;;;;2.38;1.80;;;15.30;99.90;;;;;;5053073;28;20041;-71
2023/08/21 02:52:31;;;;;;;1.80;1.30;;;15.40;99.90;;;;;;5053222;28;20048;-71
2023/08/21 02:54:57;;;;;;;2.15;1.20;;;15.40;99.90;;;;;;5053314;28;20041;-71
2023/08/21 02:57:23;;;;;;;2.90;1.30;;;15.20;99.90;;;;;;5053176;28;20094;-71
2023/08/21 02:59:49;;;;;;;0.88;0.70;;;15.10;99.90;;;;;;5053051;28;20041;-71
2023/08/21 03:02:15;;;;;;;0.75;0.70;;;15.30;99.90;;;;;;5035441;28;20060;-71
2023/08/21 03:04:40;;;;;;;2.70;1.08;;;15.00;99.90;;;;;;5053121;28;20116;-71
2023/08/21 03:07:06;;;;;;;1.73;1.08;;;15.20;99.90;;;;;;5052733;28;20516;-70
2023/08/21 03:09:31;;;;;;;1.13;1.02;;;15.20;99.90;;;;;;5034997;28;20551;-71
2023/08/21 03:11:57;;;;;;;1.30;1.10;;;14.90;99.90;;;;;;5052826;28;20068;-71
2023/08/21 03:14:22;;;;;;;1.08;0.90;;;14.90;99.90;;;;;;5053862;28;20044;-70
2023/08/21 03:16:48;;;;;;;1.50;1.15;;;14.80;99.90;;;;;;5056168;28;20096;-69
2023/08/21 03:19:13;;;;;;;2.33;1.00;;;14.80;99.90;;;;;;5054410;28;20036;-70
2023/08/21 03:21:39;;;;;;;2.78;0.90;;;14.90;99.90;;;;;;5053430;28;20036;-70
2023/08/21 03:24:06;;;;;;;0.98;0.80;;;15.00;99.90;;;;;;5034957;28;20420;-70
2023/08/21 03:26:31;;;;;;;0.82;0.68;;;15.00;99.90;;;;;;5052741;28;20131;-70
2023/08/21 03:28:57;;;;;;;1.77;0.65;;;14.70;99.90;;;;;;5053025;28;20064;-70
2023/08/21 03:31:23;;;;;;;1.00;0.90;;;14.90;99.90;;;;;;5052574;28;20124;-70
2023/08/21 03:33:48;;;;;;;1.30;0.90;;;14.70;99.90;;;;;;5034635;28;20045;-70
2023/08/21 03:36:14;;;;;;;2.15;0.70;;;14.70;99.90;;;;;;5041573;28;20424;-70
2023/08/21 03:38:39;;;;;;;1.42;0.80;;;14.80;99.90;;;;;;5045949;28;20428;-70
2023/08/21 03:41:05;;;;;;;1.13;0.90;;;14.80;99.90;;;;;;5043487;28;20041;-70
2023/08/21 03:43:31;;;;;;;1.15;1.05;;;14.80;99.90;;;;;;5052320;28;20496;-70
2023/08/21 03:45:58;;;;;;;2.20;0.98;;;14.70;99.90;;;;;;5033960;28;20051;-70
2023/08/21 03:48:23;;;;;;;4.05;1.17;;;14.80;99.90;;;;;;5025856;28;20029;-70
2023/08/21 03:50:49;;;;;;;1.23;0.80;;;14.70;99.90;;;;;;5052030;28;20037;-70
2023/08/21 03:53:15;;;;;;;1.88;1.10;;;14.70;99.90;;;;;;5052132;28;20040;-70
2023/08/21 03:55:40;;;;;;;1.27;1.05;;;14.80;99.90;;;;;;5045753;28;20034;-70
2023/08/21 03:58:06;;;;;;;2.78;1.00;;;14.60;99.90;;;;;;5049415;28;20044;-70
2023/08/21 04:00:32;;;;;;;0.73;0.70;;;14.50;99.90;;;;;;5051819;28;20120;-70
2023/08/21 04:02:58;;;;;;;2.20;1.00;;;14.70;99.90;;;;;;5051694;28;20037;-70
2023/08/21 04:05:23;;;;;;;1.20;0.90;;;14.50;99.90;;;;;;5052082;28;20037;-70
2023/08/21 04:07:49;;;;;;;1.60;1.27;;;14.80;99.90;;;;;;5027146;28;20041;-70
2023/08/21 04:10:16;;;;;;;1.20;0.82;;;14.80;99.90;;;;;;5042170;28;20068;-70
2023/08/21 04:12:41;;;;;;;1.20;0.65;;;14.80;99.90;;;;;;5051884;28;20408;-70
2023/08/21 04:15:08;;;;;;;1.60;1.10;;;14.60;99.90;;;;;;5051915;28;20049;-70
2023/08/21 04:17:33;;;;;;;2.05;1.00;;;14.80;99.90;;;;;;5033757;28;20534;-70
2023/08/21 04:19:59;;;;;;;1.48;1.20;;;14.70;99.90;;;;;;5051414;28;20037;-70
2023/08/21 04:22:24;;;;;;;1.30;0.90;;;14.60;99.90;;;;;;5030773;28;20112;-71
2023/08/21 04:24:50;;;;;;;1.65;1.15;;;14.80;99.90;;;;;;5043688;28;20545;-71
2023/08/21 04:27:15;;;;;;;6.88;1.33;;;14.70;99.90;;;;;;5033682;28;20037;-70
2023/08/21 04:29:41;;;;;;;3.17;1.00;;;14.50;99.90;;;;;;5051578;28;20155;-71
2023/08/21 04:32:07;;;;;;;1.88;1.08;;;14.70;99.90;;;;;;5051857;28;20040;-70
2023/08/21 04:34:33;;;;;;;1.80;0.77;;;14.70;99.90;;;;;;5051828;28;20037;-70
2023/08/21 04:36:58;;;;;;;1.77;0.68;;;14.60;99.90;;;;;;5051695;28;20041;-70
2023/08/21 04:39:24;;;;;;;1.88;0.93;;;14.60;99.90;;;;;;5051822;28;20041;-70
2023/08/21 04:41:49;;;;;;;3.97;0.77;;;14.70;99.90;;;;;;5051563;28;20045;-70
2023/08/21 04:44:15;;;;;;;1.08;0.68;;;14.70;99.90;;;;;;5051246;28;20420;-70
2023/08/21 04:46:40;;;;;;;0.98;0.70;;;14.60;99.90;;;;;;5083484;22;20041;-71
2023/08/21 04:49:06;;;;;;;1.10;0.68;;;14.60;99.90;;;;;;5066794;28;20087;-70
2023/08/21 04:51:32;;;;;;;0.65;0.65;;;14.70;99.90;;;;;;5066902;28;20079;-70
2023/08/21 04:53:59;;;;;;;0.73;0.65;;;14.60;99.90;;;;;;5067410;28;20048;-71
2023/08/21 04:56:25;;;;;;;1.00;0.82;;;14.90;99.90;;;;;;5071280;28;20040;-70
2023/08/21 04:58:51;;;;;;;0.90;0.70;;;14.80;99.90;;;;;;5066091;28;20078;-70
2023/08/21 05:01:17;;;;;;;1.20;1.00;;;14.60;99.90;;;;;;5061591;28;20037;-70
2023/08/21 05:03:42;;;;;;;0.95;0.73;;;14.80;99.90;;;;;;5053140;28;20040;-71
2023/08/21 05:06:08;;;;;;;4.43;0.90;;;15.00;99.90;;;;;;5069749;28;20430;-71
2023/08/21 05:08:34;;;;;;;1.95;0.77;;;15.00;99.90;;;;;;5071034;28;20064;-70
2023/08/21 05:11:00;;;;;;;2.53;1.00;;;15.00;99.90;;;;;;5071274;28;20044;-70
2023/08/21 05:13:27;;;;;;;0.98;0.73;;;15.00;99.90;;;;;;5072148;28;20051;-71
2023/08/21 05:15:57;;;;;;;3.22;0.77;;;15.20;99.90;;;;;;5074729;28;20377;-70
2023/08/21 05:18:24;;;;;;;2.20;0.88;;;15.40;99.90;;;;;;5074684;28;20047;-70
2023/08/21 05:20:51;;;;;;;1.35;0.88;;;15.50;99.90;;;;;;5075066;28;20036;-70
2023/08/21 05:23:17;;;;;;;1.80;1.00;;;15.90;99.90;;;;;;5074583;28;20581;-71
2023/08/21 05:25:46;;;;;;;1.05;0.60;;;15.80;99.90;;;;;;5074639;28;20064;-71
2023/08/21 05:28:12;;;;;;;1.80;0.82;;;16.00;99.90;;;;;;5070693;28;20041;-70
2023/08/21 05:30:38;;;;;;;2.75;0.70;;;16.10;99.90;;;;;;5066158;28;20407;-71
2023/08/21 05:33:04;;;;;;;1.45;0.70;;;16.30;99.90;;;;;;5074833;28;20094;-71
2023/08/21 05:35:36;;;;;;;0.85;0.70;;;16.70;99.90;;;;;;5074485;28;20448;-71
2023/08/21 05:38:02;;;;;;;5.88;1.10;;;16.60;99.90;;;;;;5074439;28;20044;-71
2023/08/21 05:40:28;;;;;;;1.90;0.80;;;17.10;99.90;;;;;;5073144;28;20055;-70
2023/08/21 05:42:54;;;;;;;1.92;1.10;;;17.30;99.90;;;;;;5074384;28;20048;-70
2023/08/21 05:45:19;;;;;;;2.50;1.33;;;17.30;99.90;;;;;;5074073;28;20036;-71
2023/08/21 05:47:45;;;;;;;4.63;1.27;;;17.40;99.90;;;;;;5057851;28;20033;-71
2023/08/21 05:50:11;;;;;;;4.53;1.90;;;17.70;99.90;;;;;;5063574;28;20552;-70
2023/08/21 05:52:36;;;;;;;5.80;1.80;;;17.60;99.90;;;;;;5063409;28;20037;-71
2023/08/21 05:55:02;;;;;;;3.97;1.40;;;17.90;99.90;;;;;;5066282;28;20377;-71
2023/08/21 05:57:28;;;;;;;9.00;2.45;;;18.00;99.90;;;;;;5056500;28;20052;-71
2023/08/21 05:59:53;;;;;;;5.00;1.77;;;18.20;99.90;;;;;;5069264;28;20044;-70
2023/08/21 06:02:19;;;;;;;5.05;1.83;;;18.50;99.90;;;;;;5072826;28;20094;-70
2023/08/21 06:04:45;;;;;;;2.72;1.70;;;18.40;99.90;;;;;;5073739;28;20115;-70
2023/08/21 06:07:11;;;;;;;3.63;1.77;;;18.60;99.90;;;;;;5072685;28;20089;-71
2023/08/21 06:09:36;;;;;;;2.75;1.70;;;18.70;99.90;;;;;;5073840;28;20029;-70
2023/08/21 06:12:03;;;;;;;3.75;1.80;;;19.10;99.90;;;;;;5073926;28;20397;-70
2023/08/21 06:14:29;;;;;;;3.17;1.88;;;19.20;99.90;;;;;;5073768;28;20032;-70
2023/08/21 06:17:03;;;;;;;4.45;1.85;;;19.40;99.90;;;;;;5060617;28;20040;-70
2023/08/21 06:19:29;;;;;;;4.90;2.08;;;19.60;99.90;;;;;;5053626;28;20037;-70
2023/08/21 06:21:57;;;;;;;4.00;1.80;;;19.60;99.90;;;;;;5053695;28;20060;-71
2023/08/21 06:24:24;;;;;;;3.80;1.48;;;19.80;99.90;;;;;;5053052;28;20037;-70
2023/08/21 06:26:52;;;;;;;4.15;2.22;;;20.20;99.90;;;;;;5053309;28;20041;-70
2023/08/21 06:29:18;;;;;;;5.07;2.38;;;20.40;99.90;;;;;;5053629;28;20087;-70
2023/08/21 06:31:44;;;;;;;8.73;2.45;;;20.40;99.90;;;;;;5052466;28;20116;-70
2023/08/21 06:34:09;;;;;;;7.10;2.22;;;20.70;99.90;;;;;;5053495;28;20235;-70
2023/08/21 06:36:35;;;;;;;5.18;2.22;;;20.80;99.90;;;;;;5053346;28;20120;-70
2023/08/21 06:39:00;;;;;;;6.15;2.40;;;21.00;99.90;;;;;;5053060;28;20071;-70
2023/08/21 06:41:26;;;;;;;5.00;1.90;;;20.90;99.90;;;;;;5053167;28;20033;-70
2023/08/21 06:43:51;;;;;;;5.80;2.00;;;21.10;99.90;;;;;;5051942;28;20048;-70
2023/08/21 06:46:17;;;;;;;5.75;2.00;;;21.40;99.90;;;;;;5053054;28;20045;-70
2023/08/21 06:48:43;;;;;;;3.97;2.10;;;21.70;99.90;;;;;;5052964;28;20048;-71
2023/08/21 06:51:09;;;;;;;6.80;2.30;;;22.00;99.90;;;;;;5053283;28;20409;-71
2023/08/21 06:53:35;;;;;;;6.60;2.00;;;22.20;99.90;;;;;;5053183;28;20040;-70
2023/08/21 06:56:00;;;;;;;5.95;1.80;;;22.50;99.90;;;;;;5051447;28;20068;-70
2023/08/21 06:58:26;;;;;;;6.25;1.92;;;22.60;99.90;;;;;;5052959;28;20044;-70
2023/08/21 07:00:53;;;;;;;3.50;1.85;;;22.70;99.90;;;;;;5053093;28;20075;-70
2023/08/21 07:03:20;;;;;;;2.63;1.38;;;22.90;99.90;;;;;;5052866;28;20128;-70
2023/08/21 07:05:59;;;;;;;9.43;2.20;;;23.00;99.90;;;;;;5052707;28;20547;-70
2023/08/21 07:08:25;;;;;;;5.10;1.45;;;23.00;99.90;;;;;;5052607;28;20056;-71
2023/08/21 07:10:52;;;;;;;4.85;1.60;;;23.40;99.90;;;;;;5053249;28;20098;-70
2023/08/21 07:13:18;;;;;;;4.50;1.77;;;23.30;99.90;;;;;;5052849;28;20067;-70
2023/08/21 07:15:43;;;;;;;2.97;1.38;;;23.20;99.90;;;;;;5052613;28;20504;-70
2023/08/21 07:18:09;;;;;;;4.65;1.50;;;23.60;99.90;;;;;;5052404;28;20045;-70
2023/08/21 07:20:35;;;;;;;8.35;1.63;;;23.60;99.90;;;;;;5052549;28;20036;-70
2023/08/21 07:23:00;;;;;;;4.95;1.92;;;23.90;99.90;;;;;;5052498;28;20083;-70
2023/08/21 07:25:28;;;;;;;5.13;1.45;;;24.00;99.90;;;;;;5052617;28;20497;-70
2023/08/21 07:27:54;;;;;;;7.20;1.75;;;24.30;99.90;;;;;;5051201;28;20041;-71
2023/08/21 07:30:20;;;;;;;3.20;1.30;;;24.30;99.90;;;;;;5052523;28;20128;-70
2023/08/21 07:32:46;;;;;;;5.40;2.10;;;24.20;99.90;;;;;;5052462;28;20063;-70
2023/08/21 07:35:12;;;;;;;6.30;0.98;;;24.60;99.90;;;;;;5052227;28;20222;-70
2023/08/21 07:37:37;;;;;;;5.38;1.02;;;24.90;99.90;;;;;;5051598;28;20050;-70
2023/08/21 07:40:05;;;;;;;3.58;1.50;;;24.90;99.90;;;;;;5052302;28;20043;-71
2023/08/21 07:42:30;;;;;;;3.63;1.13;;;25.10;99.90;;;;;;5052127;28;20504;-71
2023/08/21 07:44:56;;;;;;;3.35;0.90;;;25.10;99.90;;;;;;5052071;28;20072;-70
2023/08/21 07:47:22;;;;;;;4.10;1.25;;;25.30;99.90;;;;;;5052001;28;20044;-70
2023/08/21 07:49:47;;;;;;;3.55;0.90;;;25.30;99.90;;;;;;5051894;28;20485;-71
2023/08/21 07:52:13;;;;;;;2.20;0.93;;;25.50;99.90;;;;;;5051941;28;20037;-71
2023/08/21 07:54:38;;;;;;;2.30;0.80;;;25.70;99.90;;;;;;5051766;28;20099;-70
2023/08/21 07:57:04;;;;;;;4.63;0.80;;;25.70;99.90;;;;;;5051963;28;20120;-70
2023/08/21 07:59:30;;;;;;;1.42;0.75;;;25.60;99.90;;;;;;5051805;28;20041;-70
2023/08/21 08:01:55;;;;;;;2.88;0.77;;;25.80;99.90;;;;;;5051784;28;20076;-70
2023/08/21 08:04:21;;;;;;;3.30;0.75;;;26.00;99.90;;;;;;5051857;28;20041;-70
2023/08/21 08:06:47;;;;;;;2.35;0.75;;;25.90;99.10;;;;;;5051464;28;20037;-70
2023/08/21 08:09:13;;;;;;;4.20;1.00;;;26.10;98.50;;;;;;5051754;28;20167;-70
2023/08/21 08:11:38;;;;;;;3.08;0.95;;;25.90;97.90;;;;;;5051839;28;20043;-70
2023/08/21 08:14:04;;;;;;;4.03;1.00;;;26.10;98.40;;;;;;5050556;28;20089;-71
2023/08/21 08:16:30;;;;;;;5.72;1.30;;;26.30;99.70;;;;;;5051495;28;20538;-71
2023/08/21 08:18:55;;;;;;;4.38;0.75;;;26.30;99.80;;;;;;5051380;28;20033;-70
2023/08/21 08:21:21;;;;;;;5.13;1.17;;;26.30;99.90;;;;;;5051541;28;20045;-71
2023/08/21 08:23:46;;;;;;;3.67;1.00;;;26.20;98.40;;;;;;5051433;28;20077;-71
2023/08/21 08:26:12;;;;;;;3.80;1.17;;;26.30;97.60;;;;;;5051562;28;20087;-71
2023/08/21 08:28:37;;;;;;;2.85;0.93;;;26.50;98.10;;;;;;5051421;28;20111;-70
2023/08/21 08:31:03;;;;;;;3.97;0.90;;;26.50;98.80;;;;;;5051578;28;20037;-71
2023/08/21 08:33:29;;;;;;;5.80;1.13;;;26.60;98.10;;;;;;5051474;28;20043;-71
2023/08/21 08:35:54;;;;;;;3.28;1.20;;;26.70;98.10;;;;;;5050120;28;20425;-71
2023/08/21 08:38:20;;;;;;;4.38;0.65;;;26.80;98.10;;;;;;5051151;28;20036;-71
2023/08/21 08:40:46;;;;;;;2.80;0.80;;;26.70;98.10;;;;;;5050342;28;20049;-71
2023/08/21 08:43:14;;;;;;;3.42;1.70;;;26.80;97.80;;;;;;5051469;28;20048;-71
2023/08/21 08:45:41;;;;;;;4.97;1.20;;;26.90;97.40;;;;;;5049898;28;20041;-71
2023/08/21 08:48:07;;;;;;;2.85;1.00;;;26.90;96.90;;;;;;5051977;28;20033;-71
2023/08/21 08:50:33;;;;;;;2.35;0.82;;;26.90;96.00;;;;;;5054094;28;20037;-71
2023/08/21 08:53:00;;;;;;;2.35;0.70;;;26.90;95.60;;;;;;5055290;28;20045;-71
2023/08/21 08:55:26;;;;;;;3.33;0.90;;;27.00;94.40;;;;;;5053870;28;20037;-72
2023/08/21 08:57:53;;;;;;;2.65;0.80;;;27.10;94.40;;;;;;5053965;28;20446;-72
2023/08/21 09:00:22;;;;;;;2.78;0.82;;;27.20;94.70;;;;;;5055290;28;20045;-72
2023/08/21 09:02:48;;;;;;;2.65;0.90;;;27.50;96.00;;;;;;5053839;28;20048;-71
2023/08/21 09:05:13;;;;;;;2.38;0.60;;;27.30;95.50;;;;;;5054909;28;20041;-70
2023/08/21 09:07:39;;;;;;;2.88;0.93;;;27.30;94.90;;;;;;5055144;28;20094;-70
2023/08/21 09:10:13;;;;;;;2.35;0.88;;;27.00;94.60;;;;;;5053712;28;20040;-70
2023/08/21 09:12:39;;;;;;;2.65;0.73;;;26.90;95.00;;;;;;5055045;28;20037;-70
2023/08/21 09:15:08;;;;;;;3.38;0.70;;;26.90;95.50;;;;;;5036972;28;20044;-70
2023/08/21 09:17:34;;;;;;;2.45;0.90;;;26.90;96.10;;;;;;5054741;28;20040;-70
2023/08/21 09:20:07;;;;;;;3.00;1.00;;;27.00;95.70;;;;;;5053289;28;20055;-70
2023/08/21 09:22:33;;;;;;;2.90;0.80;;;27.00;95.70;;;;;;5054745;28;20048;-70
2023/08/21 09:25:09;;;;;;;1.48;0.68;;;27.00;95.70;;;;;;5054639;28;20056;-70
2023/08/21 09:27:37;;;;;;;4.75;0.90;;;27.10;95.80;;;;;;5053352;28;20461;-70
2023/08/21 09:30:09;;;;;;;3.72;1.02;;;27.00;96.10;;;;;;5054391;28;20459;-70
2023/08/21 09:32:57;;;;;;;5.53;1.00;;;26.90;95.60;;;;;;5054832;28;20124;-70
2023/08/21 09:35:23;;;;;;;1.85;1.00;;;26.80;93.80;;;;;;5054441;28;20759;-71
2023/08/21 09:37:49;;;;;;;2.45;0.60;;;26.70;96.90;;;;;;5054409;28;20041;-70
2023/08/21 09:40:16;;;;;;;2.78;0.82;;;26.80;96.10;;;;;;5054513;28;20037;-71
2023/08/21 09:42:41;;;;;;;2.72;0.90;;;26.80;95.60;;;;;;5054296;28;20041;-70
2023/08/21 09:45:07;;;;;;;2.08;0.60;;;26.80;95.10;;;;;;5054064;28;20043;-71
2023/08/21 09:47:33;;;;;;;4.15;0.88;;;26.60;94.50;;;;;;5054477;28;20037;-70
2023/08/21 09:49:59;;;;;;;2.05;0.50;;;26.40;94.30;;;;;;5054242;28;20029;-71
2023/08/21 09:52:26;;;;;;;3.03;0.70;;;26.50;93.90;;;;;;5054256;28;20555;-70
2023/08/21 09:54:56;;;;;;;3.00;0.90;;;26.30;94.80;;;;;;5054167;28;20550;-70
2023/08/21 09:57:23;;;;;;;4.25;0.85;;;26.20;95.20;;;;;;5053992;28;20565;-70
2023/08/21 09:59:52;;;;;;;4.85;0.85;;;26.10;95.20;;;;;;5053169;28;20037;-70
2023/08/21 10:02:19;;;;;;;2.47;0.70;;;26.00;96.00;;;;;;5052800;28;20045;-70
2023/08/21 10:04:46;;;;;;;4.68;1.27;;;25.90;95.90;;;;;;5052643;28;20037;-70
2023/08/21 10:07:12;;;;;;;2.33;0.70;;;25.90;96.00;;;;;;5052288;28;20047;-70
2023/08/21 10:09:41;;;;;;;3.08;0.93;;;25.80;96.40;;;;;;5053525;28;20411;-70
2023/08/21 10:12:09;;;;;;;2.40;0.73;;;25.70;95.40;;;;;;5052646;28;20053;-70
2023/08/21 10:14:36;;;;;;;2.88;0.93;;;25.70;95.90;;;;;;5053991;28;20037;-70
2023/08/21 10:17:02;;;;;;;3.05;0.73;;;25.70;96.90;;;;;;5053596;28;20518;-70
2023/08/21 10:19:32;;;;;;;3.88;0.90;;;25.60;96.70;;;;;;5053711;28;20083;-70
2023/08/21 10:21:59;;;;;;;2.58;0.75;;;25.60;96.40;;;;;;5046263;28;20068;-72
2023/08/21 10:24:33;;;;;;;4.47;1.00;;;25.90;95.40;;;;;;5054850;28;20076;-73
2023/08/21 10:26:59;;;;;;;3.42;1.00;;;26.10;94.80;;;;;;5064874;28;20094;-71
2023/08/21 10:29:26;;;;;;;2.22;0.85;;;26.20;94.60;;;;;;5062035;28;20079;-71
2023/08/21 10:32:02;;;;;;;3.47;1.08;;;26.30;95.50;;;;;;5060355;28;20041;-71
2023/08/21 10:34:33;;;;;;;2.78;0.80;;;26.30;94.60;;;;;;5057983;28;20415;-71
2023/08/21 10:37:12;;;;;;;2.80;0.60;;;26.30;94.40;;;;;;5044053;28;20042;-71
2023/08/21 10:39:39;;;;;;;4.68;0.82;;;26.20;94.20;;;;;;5059256;28;20029;-72
2023/08/21 10:42:15;;;;;;;3.53;0.85;;;26.30;94.60;;;;;;5057365;28;20079;-71
2023/08/21 10:44:45;;;;;;;2.72;1.02;;;26.20;92.30;;;;;;5053266;28;20415;-71
2023/08/21 10:47:20;;;;;;;3.35;1.00;;;26.10;93.70;;;;;;5054139;28;20444;-72
2023/08/21 10:49:48;;;;;;;3.63;1.00;;;26.10;92.90;;;;;;5060878;28;20068;-71
2023/08/21 10:52:14;;;;;;;4.70;1.05;;;26.10;93.70;;;;;;5051379;28;20409;-71
2023/08/21 10:54:48;;;;;;;5.45;0.85;;;26.30;94.10;;;;;;5065333;28;20051;-71
2023/08/21 10:57:14;;;;;;;3.17;0.90;;;26.30;93.10;;;;;;5043946;28;20108;-71
2023/08/21 10:59:49;;;;;;;2.80;1.15;;;26.20;94.20;;;;;;5060894;28;20117;-71
2023/08/21 11:02:15;;;;;;;5.80;1.20;;;26.10;93.90;;;;;;5070668;28;20044;-71
2023/08/21 11:04:41;;;;;;;2.70;0.90;;;25.90;93.80;;;;;;5060384;28;20427;-71
2023/08/21 11:07:08;;;;;;;3.78;0.98;;;26.00;94.90;;;;;;5073047;28;20098;-71
2023/08/21 11:09:36;;;;;;;2.08;0.82;;;26.00;95.20;;;;;;5058844;28;20044;-71
2023/08/21 11:12:13;;;;;;;3.33;1.10;;;25.80;94.30;;;;;;5067101;28;20049;-71
2023/08/21 11:14:39;;;;;;;3.15;0.70;;;25.80;93.40;;;;;;5065003;28;20094;-70
2023/08/21 11:17:08;;;;;;;3.63;1.08;;;25.70;92.60;;;;;;5060698;28;20033;-71
2023/08/21 11:19:34;;;;;;;2.33;0.75;;;25.70;93.30;;;;;;5038769;28;20037;-73
2023/08/21 11:22:04;;;;;;;5.03;1.35;;;25.60;93.60;;;;;;5055486;28;20041;-72
2023/08/21 11:24:53;;;;;;;12.65;1.75;;;25.60;93.20;;;;;;5062231;28;20079;-71
2023/08/21 11:27:19;;;;;;;3.53;0.80;;;25.60;95.10;;;;;;5048623;28;20506;-71
2023/08/21 11:29:46;;;;;;;14.13;1.50;;;25.60;92.00;;;;;;5042320;28;20061;-71
2023/08/21 11:32:19;;;;;;;2.40;0.88;;;25.70;92.60;;;;;;5044000;28;20032;-71
2023/08/21 11:34:54;;;;;;;2.90;0.80;;;25.70;92.70;;;;;;5021992;28;20112;-70
2023/08/21 11:37:21;;;;;;;2.45;0.98;;;25.80;92.10;;;;;;5041636;28;20488;-70
2023/08/21 11:39:55;;;;;;;22.48;2.42;;;25.70;92.30;;;;;;5042620;28;20485;-71
2023/08/21 11:42:29;;;;;;;3.83;0.85;;;25.80;92.80;;;;;;5044101;28;20068;-72
2023/08/21 11:44:55;;;;;;;211.98;29.58;;;25.80;91.30;;;;;;5042384;28;20424;-70
2023/08/21 11:47:22;;;;;;;9.55;1.13;;;25.90;92.20;;;;;;5039972;28;20040;-72
2023/08/21 11:49:49;;;;;;;2.22;0.80;;;25.70;85.40;;;;;;5059206;28;20072;-72
2023/08/21 11:52:19;;;;;;;2.67;0.65;;;25.70;84.50;;;;;;5063561;28;20033;-73
2023/08/21 11:54:48;;;;;;;10.35;5.03;;;25.70;89.80;;;;;;5062086;28;20043;-72
2023/08/21 11:57:14;;;;;;;3.75;1.73;;;25.70;91.20;;;;;;5058305;28;20041;-72
2023/08/21 11:59:40;;;;;;;1999.90;625.65;;;25.80;91.40;;;;;;5055863;28;20032;-72
2023/08/21 12:02:14;;;;;;;79.78;16.75;;;26.00;91.30;;;;;;5046342;28;20376;-72
2023/08/21 12:04:39;;;;;;;3.72;1.38;;;26.00;91.40;;;;;;5048172;28;20029;-72
2023/08/21 12:07:05;;;;;;;2.97;0.70;;;26.00;89.60;;;;;;5050704;28;20083;-73
2023/08/21 12:09:31;;;;;;;2.30;1.15;;;25.90;85.50;;;;;;5050780;28;20080;-74
2023/08/21 12:11:57;;;;;;;4.32;0.95;;;25.90;87.50;;;;;;5061609;28;20032;-73
2023/08/21 12:14:23;;;;;;;2.30;0.85;;;25.90;86.80;;;;;;5061774;28;20041;-73
2023/08/21 12:16:48;;;;;;;5.85;1.02;;;25.80;88.20;;;;;;5055572;28;20088;-74
2023/08/21 12:19:14;;;;;;;1.92;1.10;;;25.80;87.40;;;;;;5061078;28;20048;-73
2023/08/21 12:21:40;;;;;;;4.57;1.02;;;26.00;88.80;;;;;;5059553;28;20102;-73
2023/08/21 12:24:08;;;;;;;5.65;1.00;;;25.90;85.80;;;;;;5057393;28;20519;-73
2023/08/21 12:26:34;;;;;;;3.13;1.00;;;25.90;89.50;;;;;;5051377;28;20032;-73
2023/08/21 12:29:01;;;;;;;3.95;0.90;;;25.90;90.10;;;;;;5052412;28;20045;-73
2023/08/21 12:31:26;;;;;;;2.72;0.80;;;25.90;90.90;;;;;;5063096;28;20045;-74
2023/08/21 12:33:52;;;;;;;2.28;0.73;;;26.00;90.30;;;;;;5061887;28;20040;-72
2023/08/21 12:36:18;;;;;;;3.80;0.70;;;26.10;90.90;;;;;;5060017;28;20447;-72
2023/08/21 12:38:43;;;;;;;3.85;1.30;;;26.10;89.40;;;;;;5050148;28;20113;-72
2023/08/21 12:41:09;;;;;;;4.68;1.00;;;26.10;89.40;;;;;;5057637;28;20126;-72
2023/08/21 12:43:35;;;;;;;3.28;1.05;;;26.10;88.70;;;;;;5045583;28;20064;-72